Time,TemperatureF,DewpointF,PressureIn,WindDirection,WindDirectionDegrees,WindSpeedMPH,WindSpeedGustMPH,Humidity,HourlyPrecipIn,Conditions,Clouds,dailyrainin,SoftwareType,DateUTC
2013-08-16 00:00:00,78.5,64.4,30.00,East,92,2.0,5.0,62,0.00,,,0.00,VWS V14.01,2013-08-15 22:00:00,
2013-08-16 00:03:00,78.8,64.7,30.00,East,92,3.0,5.0,62,0.00,,,0.00,VWS V14.01,2013-08-15 22:03:00,
2013-08-16 00:08:00,78.3,64.7,30.00,East,92,3.0,5.0,63,0.00,,,0.00,VWS V14.01,2013-08-15 22:08:00,
2013-08-16 00:10:00,77.5,63.9,29.99,East,84,6.0,6.0,63,0.00,,,0.00,VWS V14.01,2013-08-15 22:10:00,
2013-08-16 00:13:00,77.8,64.2,30.00,East,88,5.0,6.0,63,0.00,,,0.00,VWS V14.01,2013-08-15 22:13:00,
2013-08-16 00:18:00,77.1,63.5,29.99,ENE,61,5.0,8.0,63,0.00,,,0.00,VWS V14.01,2013-08-15 22:18:00,
2013-08-16 00:20:00,76.9,63.4,29.99,NE,48,4.0,8.0,63,0.00,,,0.00,VWS V14.01,2013-08-15 22:20:00,
2013-08-16 00:23:00,77.0,63.5,29.99,NE,50,5.0,8.0,63,0.00,,,0.00,VWS V14.01,2013-08-15 22:23:00,
2013-08-16 00:28:00,77.1,63.5,29.99,NE,44,5.0,6.0,63,0.00,,,0.00,VWS V14.01,2013-08-15 22:28:00,
2013-08-16 00:30:00,77.4,63.4,29.99,NE,39,5.0,6.0,62,0.00,,,0.00,VWS V14.01,2013-08-15 22:30:00,
2013-08-16 00:33:00,77.5,63.5,29.99,NE,41,4.0,6.0,62,0.00,,,0.00,VWS V14.01,2013-08-15 22:33:00,
2013-08-16 00:38:00,77.5,63.0,29.99,NE,36,4.0,7.0,61,0.00,,,0.00,VWS V14.01,2013-08-15 22:38:00,
2013-08-16 00:40:00,77.6,63.1,29.99,NE,40,5.0,7.0,61,0.00,,,0.00,VWS V14.01,2013-08-15 22:40:00,
2013-08-16 00:43:00,77.5,63.0,29.99,NE,36,4.0,7.0,61,0.00,,,0.00,VWS V14.01,2013-08-15 22:43:00,
2013-08-16 00:48:00,77.9,62.9,29.99,NE,40,2.0,6.0,60,0.00,,,0.00,VWS V14.01,2013-08-15 22:48:00,
2013-08-16 00:50:00,77.9,62.9,29.99,NE,41,3.0,6.0,60,0.00,,,0.00,VWS V14.01,2013-08-15 22:50:00,
2013-08-16 00:53:00,77.9,62.9,29.99,NE,40,5.0,6.0,60,0.00,,,0.00,VWS V14.01,2013-08-15 22:53:00,
2013-08-16 00:58:00,77.9,62.9,29.99,NE,41,3.0,6.0,60,0.00,,,0.00,VWS V14.01,2013-08-15 22:58:00,
2013-08-16 01:00:00,77.9,62.9,30.00,NE,42,3.0,6.0,60,0.00,,,0.00,VWS V14.01,2013-08-15 23:00:00,
2013-08-16 01:03:00,77.9,62.9,29.99,NE,42,3.0,6.0,60,0.00,,,0.00,VWS V14.01,2013-08-15 23:03:00,
2013-08-16 01:08:00,77.9,62.9,29.99,NE,42,2.0,3.0,60,0.00,,,0.00,VWS V14.01,2013-08-15 23:08:00,
2013-08-16 01:10:00,76.8,62.8,29.99,NE,34,4.0,7.0,62,0.00,,,0.00,VWS V14.01,2013-08-15 23:10:00,
2013-08-16 01:13:00,77.2,62.7,29.99,NE,37,5.0,6.0,61,0.00,,,0.00,VWS V14.01,2013-08-15 23:13:00,
2013-08-16 01:18:00,76.6,63.1,29.99,NNE,32,6.0,7.0,63,0.00,,,0.00,VWS V14.01,2013-08-15 23:18:00,
2013-08-16 01:20:00,75.9,63.3,29.99,NNE,28,7.0,7.0,65,0.00,,,0.00,VWS V14.01,2013-08-15 23:20:00,
2013-08-16 01:23:00,76.2,63.1,29.99,NNE,30,6.0,7.0,64,0.00,,,0.00,VWS V14.01,2013-08-15 23:23:00,
2013-08-16 01:28:00,75.7,63.1,29.99,NNE,30,6.0,7.0,65,0.00,,,0.00,VWS V14.01,2013-08-15 23:28:00,
2013-08-16 01:30:00,75.9,63.3,29.99,NE,40,1.0,7.0,65,0.00,,,0.00,VWS V14.01,2013-08-15 23:30:00,
2013-08-16 01:33:00,75.8,63.2,29.99,NE,40,4.0,7.0,65,0.00,,,0.00,VWS V14.01,2013-08-15 23:33:00,
2013-08-16 01:38:00,76.1,63.0,29.99,NE,40,2.0,5.0,64,0.00,,,0.00,VWS V14.01,2013-08-15 23:38:00,
2013-08-16 01:40:00,77.3,62.8,29.99,NE,47,4.0,8.0,61,0.00,,,0.00,VWS V14.01,2013-08-15 23:40:00,
2013-08-16 01:43:00,77.2,63.2,29.99,NE,49,4.0,8.0,62,0.00,,,0.00,VWS V14.01,2013-08-15 23:43:00,
2013-08-16 01:48:00,77.2,63.2,29.99,NE,45,5.0,7.0,62,0.00,,,0.00,VWS V14.01,2013-08-15 23:48:00,
2013-08-16 01:50:00,77.2,63.2,29.98,NE,40,7.0,8.0,62,0.00,,,0.00,VWS V14.01,2013-08-15 23:50:00,
2013-08-16 01:53:00,77.2,63.2,29.99,NE,44,7.0,7.0,62,0.00,,,0.00,VWS V14.01,2013-08-15 23:53:00,
2013-08-16 01:59:00,77.5,63.0,29.99,NE,46,6.0,9.0,61,0.00,,,0.00,VWS V14.01,2013-08-15 23:59:00,
2013-08-16 02:00:00,77.6,63.1,29.99,NE,48,7.0,9.0,61,0.00,,,0.00,VWS V14.01,2013-08-16 00:00:00,
2013-08-16 02:04:00,77.6,63.1,29.99,NE,49,7.0,9.0,61,0.00,,,0.00,VWS V14.01,2013-08-16 00:04:00,
2013-08-16 02:09:00,77.4,62.9,29.99,NE,49,3.0,6.0,61,0.00,,,0.00,VWS V14.01,2013-08-16 00:09:00,
2013-08-16 02:10:00,77.1,63.1,29.99,NE,48,5.0,7.0,62,0.00,,,0.00,VWS V14.01,2013-08-16 00:10:00,
2013-08-16 02:14:00,77.2,63.2,29.99,NE,48,3.0,7.0,62,0.00,,,0.00,VWS V14.01,2013-08-16 00:14:00,
2013-08-16 02:19:00,77.3,62.8,29.99,ENE,58,7.0,10.0,61,0.00,,,0.00,VWS V14.01,2013-08-16 00:19:00,
2013-08-16 02:20:00,76.9,62.9,29.98,NE,50,2.0,10.0,62,0.00,,,0.00,VWS V14.01,2013-08-16 00:20:00,
2013-08-16 02:24:00,77.1,62.6,29.99,NE,50,5.0,10.0,61,0.00,,,0.00,VWS V14.01,2013-08-16 00:24:00,
2013-08-16 02:29:00,76.1,63.0,29.98,NNE,33,4.0,6.0,64,0.00,,,0.00,VWS V14.01,2013-08-16 00:29:00,
2013-08-16 02:30:00,75.5,63.4,29.98,NNE,33,5.0,6.0,66,0.00,,,0.00,VWS V14.01,2013-08-16 00:30:00,
2013-08-16 02:34:00,75.5,63.4,29.98,NNE,33,4.0,6.0,66,0.00,,,0.00,VWS V14.01,2013-08-16 00:34:00,
2013-08-16 02:39:00,75.5,63.4,29.99,NNE,33,5.0,5.0,66,0.00,,,0.00,VWS V14.01,2013-08-16 00:39:00,
2013-08-16 02:40:00,74.9,63.2,29.98,NNE,25,6.0,7.0,67,0.00,,,0.00,VWS V14.01,2013-08-16 00:40:00,
2013-08-16 02:44:00,74.9,63.2,29.99,NNE,23,6.0,7.0,67,0.00,,,0.00,VWS V14.01,2013-08-16 00:44:00,
2013-08-16 02:49:00,75.2,63.5,29.98,NE,39,5.0,7.0,67,0.00,,,0.00,VWS V14.01,2013-08-16 00:49:00,
2013-08-16 02:50:00,75.0,63.3,29.98,NNE,28,8.0,8.0,67,0.00,,,0.00,VWS V14.01,2013-08-16 00:50:00,
2013-08-16 02:54:00,75.2,63.5,29.98,NE,34,6.0,7.0,67,0.00,,,0.00,VWS V14.01,2013-08-16 00:54:00,
2013-08-16 02:59:00,74.7,63.5,29.98,NE,34,7.0,9.0,68,0.00,,,0.00,VWS V14.01,2013-08-16 00:59:00,
2013-08-16 03:00:00,74.2,63.4,29.98,NNE,21,10.0,11.0,69,0.00,,,0.00,VWS V14.01,2013-08-16 01:00:00,
2013-08-16 03:04:00,74.3,63.5,29.98,NNE,29,6.0,11.0,69,0.00,,,0.00,VWS V14.01,2013-08-16 01:04:00,
2013-08-16 03:09:00,74.1,63.3,29.98,NE,34,6.0,9.0,69,0.00,,,0.00,VWS V14.01,2013-08-16 01:09:00,
2013-08-16 03:10:00,73.9,63.5,29.98,NE,34,6.0,9.0,70,0.00,,,0.00,VWS V14.01,2013-08-16 01:10:00,
2013-08-16 03:14:00,73.9,63.5,29.98,NE,36,4.0,9.0,70,0.00,,,0.00,VWS V14.01,2013-08-16 01:14:00,
2013-08-16 03:19:00,73.8,63.4,29.98,NNE,30,6.0,9.0,70,0.00,,,0.00,VWS V14.01,2013-08-16 01:19:00,
2013-08-16 03:20:00,73.6,63.2,29.98,NNE,26,7.0,9.0,70,0.00,,,0.00,VWS V14.01,2013-08-16 01:20:00,
2013-08-16 03:24:00,73.6,63.2,29.98,NNE,26,3.0,9.0,70,0.00,,,0.00,VWS V14.01,2013-08-16 01:24:00,
2013-08-16 03:30:00,73.6,63.2,29.98,NNE,30,5.0,8.0,70,0.00,,,0.00,VWS V14.01,2013-08-16 01:30:00,
2013-08-16 03:35:00,73.5,63.1,29.98,NNE,33,7.0,9.0,70,0.00,,,0.00,VWS V14.01,2013-08-16 01:35:00,
2013-08-16 03:40:00,73.4,63.4,29.98,NE,35,4.0,8.0,71,0.00,,,0.00,VWS V14.01,2013-08-16 01:40:00,
2013-08-16 03:45:00,73.3,63.3,29.98,NE,35,5.0,8.0,71,0.00,,,0.00,VWS V14.01,2013-08-16 01:45:00,
2013-08-16 03:50:00,73.3,63.3,29.98,NE,38,5.0,7.0,71,0.00,,,0.00,VWS V14.01,2013-08-16 01:50:00,
2013-08-16 03:55:00,73.3,63.3,29.98,NNE,32,4.0,7.0,71,0.00,,,0.00,VWS V14.01,2013-08-16 01:55:00,
2013-08-16 04:00:00,73.1,63.2,29.98,NNE,31,7.0,8.0,71,0.00,,,0.00,VWS V14.01,2013-08-16 02:00:00,
2013-08-16 04:05:00,73.1,63.2,29.98,NE,34,4.0,8.0,71,0.00,,,0.00,VWS V14.01,2013-08-16 02:05:00,
2013-08-16 04:10:00,73.0,63.5,29.98,NE,36,4.0,8.0,72,0.00,,,0.00,VWS V14.01,2013-08-16 02:10:00,
2013-08-16 04:15:00,73.0,63.0,29.98,NE,35,4.0,8.0,71,0.00,,,0.00,VWS V14.01,2013-08-16 02:15:00,
2013-08-16 04:20:00,73.0,63.5,29.98,NE,44,7.0,8.0,72,0.00,,,0.00,VWS V14.01,2013-08-16 02:20:00,
2013-08-16 04:25:00,73.0,63.5,29.98,NE,46,2.0,8.0,72,0.00,,,0.00,VWS V14.01,2013-08-16 02:25:00,
2013-08-16 04:30:00,73.2,63.6,29.98,NE,50,4.0,5.0,72,0.00,,,0.00,VWS V14.01,2013-08-16 02:30:00,
2013-08-16 04:35:00,73.3,63.3,29.98,NE,40,2.0,8.0,71,0.00,,,0.00,VWS V14.01,2013-08-16 02:35:00,
2013-08-16 04:40:00,73.1,63.2,29.98,NE,36,4.0,6.0,71,0.00,,,0.00,VWS V14.01,2013-08-16 02:40:00,
2013-08-16 04:45:00,73.0,63.0,29.98,NNE,32,5.0,8.0,71,0.00,,,0.00,VWS V14.01,2013-08-16 02:45:00,
2013-08-16 04:50:00,73.1,63.2,29.98,NNE,30,4.0,7.0,71,0.00,,,0.00,VWS V14.01,2013-08-16 02:50:00,
2013-08-16 04:55:00,73.0,63.0,29.98,NE,34,6.0,8.0,71,0.00,,,0.00,VWS V14.01,2013-08-16 02:55:00,
2013-08-16 05:00:00,72.9,63.0,29.98,NNE,32,6.0,7.0,71,0.00,,,0.00,VWS V14.01,2013-08-16 03:00:00,
2013-08-16 05:05:00,72.7,63.2,29.98,NNE,32,5.0,7.0,72,0.00,,,0.00,VWS V14.01,2013-08-16 03:05:00,
2013-08-16 05:10:00,72.4,62.9,29.98,NNE,28,5.0,6.0,72,0.00,,,0.00,VWS V14.01,2013-08-16 03:10:00,
2013-08-16 05:15:00,72.3,62.8,29.98,NNE,27,5.0,7.0,72,0.00,,,0.00,VWS V14.01,2013-08-16 03:15:00,
2013-08-16 05:20:00,72.2,62.7,29.98,NNE,27,3.0,6.0,72,0.00,,,0.00,VWS V14.01,2013-08-16 03:20:00,
2013-08-16 05:25:00,72.2,62.7,29.98,NNE,26,4.0,8.0,72,0.00,,,0.00,VWS V14.01,2013-08-16 03:25:00,
2013-08-16 05:30:00,71.9,62.8,29.98,NNE,26,6.0,7.0,73,0.00,,,0.00,VWS V14.01,2013-08-16 03:30:00,
2013-08-16 05:35:00,72.0,62.9,29.98,NNE,24,5.0,7.0,73,0.00,,,0.00,VWS V14.01,2013-08-16 03:35:00,
2013-08-16 05:40:00,71.9,62.8,29.99,NNE,24,6.0,7.0,73,0.00,,,0.00,VWS V14.01,2013-08-16 03:40:00,
2013-08-16 05:45:00,71.8,62.7,29.99,NNE,27,4.0,7.0,73,0.00,,,0.00,VWS V14.01,2013-08-16 03:45:00,
2013-08-16 05:50:00,71.7,62.6,29.99,NNE,24,6.0,7.0,73,0.00,,,0.00,VWS V14.01,2013-08-16 03:50:00,
2013-08-16 05:55:00,71.6,62.5,29.99,NNE,23,6.0,7.0,73,0.00,,,0.00,VWS V14.01,2013-08-16 03:55:00,
2013-08-16 06:00:00,71.6,62.5,29.98,NNE,21,7.0,9.0,73,0.00,,,0.00,VWS V14.01,2013-08-16 04:00:00,
2013-08-16 06:01:00,71.5,62.4,29.99,NNE,20,6.0,9.0,73,0.00,,,0.00,VWS V14.01,2013-08-16 04:01:00,
2013-08-16 06:06:00,71.3,62.6,29.99,NNE,24,6.0,7.0,74,0.00,,,0.00,VWS V14.01,2013-08-16 04:06:00,
2013-08-16 06:10:00,71.2,62.5,29.99,NNE,22,6.0,8.0,74,0.00,,,0.00,VWS V14.01,2013-08-16 04:10:00,
2013-08-16 06:11:00,71.2,62.5,29.99,NNE,23,7.0,7.0,74,0.00,,,0.00,VWS V14.01,2013-08-16 04:11:00,
2013-08-16 06:16:00,71.2,62.5,29.99,NNE,22,6.0,6.0,74,0.00,,,0.00,VWS V14.01,2013-08-16 04:16:00,
2013-08-16 06:20:00,71.1,62.4,29.98,NNE,22,5.0,7.0,74,0.00,,,0.00,VWS V14.01,2013-08-16 04:20:00,
2013-08-16 06:21:00,71.1,62.4,29.99,NNE,22,6.0,7.0,74,0.00,,,0.00,VWS V14.01,2013-08-16 04:21:00,
2013-08-16 06:26:00,71.1,62.4,29.99,NNE,22,4.0,5.0,74,0.00,,,0.00,VWS V14.01,2013-08-16 04:26:00,
2013-08-16 06:30:00,71.1,62.4,29.99,NNE,19,3.0,8.0,74,0.00,,,0.00,VWS V14.01,2013-08-16 04:30:00,
2013-08-16 06:31:00,71.1,62.4,29.99,NNE,22,3.0,7.0,74,0.00,,,0.00,VWS V14.01,2013-08-16 04:31:00,
2013-08-16 06:36:00,71.1,62.4,29.99,NNE,19,2.0,5.0,74,0.00,,,0.00,VWS V14.01,2013-08-16 04:36:00,
2013-08-16 06:40:00,70.9,62.6,29.99,NNE,19,4.0,7.0,75,0.00,,,0.00,VWS V14.01,2013-08-16 04:40:00,
2013-08-16 06:41:00,70.9,62.2,29.99,NNE,19,6.0,7.0,74,0.00,,,0.00,VWS V14.01,2013-08-16 04:41:00,
2013-08-16 06:46:00,70.9,62.6,29.99,NNE,19,4.0,6.0,75,0.00,,,0.00,VWS V14.01,2013-08-16 04:46:00,
2013-08-16 06:50:00,71.2,62.5,29.99,NNE,19,4.0,7.0,74,0.00,,,0.00,VWS V14.01,2013-08-16 04:50:00,
2013-08-16 06:51:00,71.0,62.7,29.99,NNE,19,5.0,6.0,75,0.00,,,0.00,VWS V14.01,2013-08-16 04:51:00,
2013-08-16 06:56:00,71.2,62.5,29.99,NNE,19,3.0,7.0,74,0.00,,,0.00,VWS V14.01,2013-08-16 04:56:00,
2013-08-16 07:00:00,71.6,62.9,29.99,NNE,31,3.0,7.0,74,0.00,,,0.00,VWS V14.01,2013-08-16 05:00:00,
2013-08-16 07:01:00,71.4,62.7,29.99,NNE,19,5.0,7.0,74,0.00,,,0.00,VWS V14.01,2013-08-16 05:01:00,
2013-08-16 07:06:00,71.6,62.9,29.99,NNE,31,3.0,7.0,74,0.00,,,0.00,VWS V14.01,2013-08-16 05:06:00,
2013-08-16 07:10:00,72.0,62.9,30.00,NNE,27,5.0,7.0,73,0.00,,,0.00,VWS V14.01,2013-08-16 05:10:00,
2013-08-16 07:11:00,71.8,62.7,30.00,NNE,27,4.0,7.0,73,0.00,,,0.00,VWS V14.01,2013-08-16 05:11:00,
2013-08-16 07:19:00,72.1,63.0,30.00,NNE,26,2.0,6.0,73,0.00,,,0.00,VWS V14.01,2013-08-16 05:19:00,
2013-08-16 07:20:00,72.4,63.3,30.00,NNE,28,3.0,6.0,73,0.00,,,0.00,VWS V14.01,2013-08-16 05:20:00,
2013-08-16 07:24:00,72.3,63.2,30.00,NNE,26,4.0,6.0,73,0.00,,,0.00,VWS V14.01,2013-08-16 05:24:00,
2013-08-16 07:29:00,72.6,63.5,30.00,NNE,28,5.0,6.0,73,0.00,,,0.00,VWS V14.01,2013-08-16 05:29:00,
2013-08-16 07:30:00,72.8,63.3,30.00,NNE,28,4.0,6.0,72,0.00,,,0.00,VWS V14.01,2013-08-16 05:30:00,
2013-08-16 07:34:00,72.8,63.3,30.00,NNE,28,3.0,6.0,72,0.00,,,0.00,VWS V14.01,2013-08-16 05:34:00,
2013-08-16 07:39:00,72.9,63.3,30.00,NNE,27,6.0,6.0,72,0.00,,,0.00,VWS V14.01,2013-08-16 05:39:00,
2013-08-16 07:40:00,73.3,63.7,30.00,NNE,27,3.0,6.0,72,0.00,,,0.00,VWS V14.01,2013-08-16 05:40:00,
2013-08-16 07:44:00,73.3,63.7,30.00,NNE,27,2.0,6.0,72,0.00,,,0.00,VWS V14.01,2013-08-16 05:44:00,
2013-08-16 07:49:00,73.6,63.6,30.00,NNE,27,4.0,4.0,71,0.00,,,0.00,VWS V14.01,2013-08-16 05:49:00,
2013-08-16 07:50:00,73.8,63.8,30.00,NNE,27,5.0,7.0,71,0.00,,,0.00,VWS V14.01,2013-08-16 05:50:00,
2013-08-16 07:54:00,73.8,63.8,30.00,NNE,27,5.0,6.0,71,0.00,,,0.00,VWS V14.01,2013-08-16 05:54:00,
2013-08-16 07:59:00,73.9,63.5,30.00,NNE,27,5.0,6.0,70,0.00,,,0.00,VWS V14.01,2013-08-16 05:59:00,
2013-08-16 08:00:00,74.3,63.9,30.00,NNE,26,4.0,6.0,70,0.00,,,0.00,VWS V14.01,2013-08-16 06:00:00,
2013-08-16 08:04:00,74.2,63.8,30.00,NNE,26,5.0,6.0,70,0.00,,,0.00,VWS V14.01,2013-08-16 06:04:00,
2013-08-16 08:09:00,74.5,64.1,30.00,NNE,30,3.0,6.0,70,0.00,,,0.00,VWS V14.01,2013-08-16 06:09:00,
2013-08-16 08:10:00,74.9,64.1,30.00,NNE,28,5.0,7.0,69,0.00,,,0.00,VWS V14.01,2013-08-16 06:10:00,
2013-08-16 08:14:00,74.9,64.1,30.00,NNE,28,6.0,7.0,69,0.00,,,0.00,VWS V14.01,2013-08-16 06:14:00,
2013-08-16 08:19:00,75.3,64.4,30.00,NNE,28,1.0,5.0,69,0.00,,,0.00,VWS V14.01,2013-08-16 06:19:00,
2013-08-16 08:20:00,75.9,64.2,30.01,NNE,28,5.0,6.0,67,0.00,,,0.00,VWS V14.01,2013-08-16 06:20:00,
2013-08-16 08:24:00,75.8,64.1,30.01,NNE,28,4.0,5.0,67,0.00,,,0.00,VWS V14.01,2013-08-16 06:24:00,
2013-08-16 08:29:00,76.3,64.6,30.00,NNE,28,5.0,6.0,67,0.00,,,0.00,VWS V14.01,2013-08-16 06:29:00,
2013-08-16 08:30:00,77.0,64.3,30.01,NNE,28,3.0,6.0,65,0.00,,,0.00,VWS V14.01,2013-08-16 06:30:00,
2013-08-16 08:34:00,76.8,64.6,30.00,NNE,28,3.0,6.0,66,0.00,,,0.00,VWS V14.01,2013-08-16 06:34:00,
2013-08-16 08:39:00,77.2,64.1,30.00,NNE,28,3.0,5.0,64,0.00,,,0.00,VWS V14.01,2013-08-16 06:39:00,
2013-08-16 08:40:00,77.8,64.2,30.00,NNE,28,5.0,5.0,63,0.00,,,0.00,VWS V14.01,2013-08-16 06:40:00,
2013-08-16 08:44:00,77.7,64.6,30.00,NNE,28,2.0,5.0,64,0.00,,,0.00,VWS V14.01,2013-08-16 06:44:00,
2013-08-16 08:49:00,77.9,63.8,30.00,NNE,28,5.0,5.0,62,0.00,,,0.00,VWS V14.01,2013-08-16 06:49:00,
2013-08-16 08:50:00,78.4,64.8,30.00,NNE,28,0.0,5.0,63,0.00,,,0.00,VWS V14.01,2013-08-16 06:50:00,
2013-08-16 08:54:00,78.4,64.8,30.00,NNE,28,1.0,5.0,63,0.00,,,0.00,VWS V14.01,2013-08-16 06:54:00,
2013-08-16 08:59:00,79.0,64.4,30.00,NNE,28,0.0,2.0,61,0.00,,,0.00,VWS V14.01,2013-08-16 06:59:00,
2013-08-16 09:00:00,79.6,64.5,30.01,NNE,28,1.0,4.0,60,0.00,,,0.00,VWS V14.01,2013-08-16 07:00:00,
2013-08-16 09:04:00,79.6,65.0,30.00,NNE,28,0.0,4.0,61,0.00,,,0.00,VWS V14.01,2013-08-16 07:04:00,
2013-08-16 09:09:00,79.6,64.5,30.00,NNE,26,2.0,3.0,60,0.00,,,0.00,VWS V14.01,2013-08-16 07:09:00,
2013-08-16 09:10:00,79.7,64.1,30.01,NNE,26,2.0,4.0,59,0.00,,,0.00,VWS V14.01,2013-08-16 07:10:00,
2013-08-16 09:14:00,79.7,64.6,30.01,NNE,26,3.0,4.0,60,0.00,,,0.00,VWS V14.01,2013-08-16 07:14:00,
2013-08-16 09:19:00,79.7,63.6,30.01,North,355,4.0,5.0,58,0.00,,,0.00,VWS V14.01,2013-08-16 07:19:00,
2013-08-16 09:20:00,79.8,63.7,30.00,NNW,336,0.0,5.0,58,0.00,,,0.00,VWS V14.01,2013-08-16 07:20:00,
2013-08-16 09:24:00,79.7,63.6,30.00,NNW,336,2.0,5.0,58,0.00,,,0.00,VWS V14.01,2013-08-16 07:24:00,
2013-08-16 09:29:00,80.3,64.2,30.00,NNW,336,2.0,4.0,58,0.00,,,0.00,VWS V14.01,2013-08-16 07:29:00,
2013-08-16 09:30:00,80.5,63.4,30.00,NNW,331,4.0,4.0,56,0.00,,,0.00,VWS V14.01,2013-08-16 07:30:00,
2013-08-16 09:34:00,80.6,63.5,30.00,NNW,335,2.0,4.0,56,0.00,,,0.00,VWS V14.01,2013-08-16 07:34:00,
2013-08-16 09:39:00,80.2,63.1,30.00,WNW,297,4.0,6.0,56,0.00,,,0.00,VWS V14.01,2013-08-16 07:39:00,
2013-08-16 09:40:00,80.2,63.1,30.01,West,279,2.0,6.0,56,0.00,,,0.00,VWS V14.01,2013-08-16 07:40:00,
2013-08-16 09:44:00,80.2,63.6,30.00,West,279,3.0,6.0,57,0.00,,,0.00,VWS V14.01,2013-08-16 07:44:00,
2013-08-16 09:49:00,80.4,63.3,30.00,West,279,3.0,4.0,56,0.00,,,0.00,VWS V14.01,2013-08-16 07:49:00,
2013-08-16 09:50:00,81.0,63.3,30.01,West,279,0.0,5.0,55,0.00,,,0.00,VWS V14.01,2013-08-16 07:50:00,
2013-08-16 09:54:00,80.8,63.7,30.01,West,279,0.0,5.0,56,0.00,,,0.00,VWS V14.01,2013-08-16 07:54:00,
2013-08-16 09:59:00,81.6,63.9,30.01,West,279,1.0,4.0,55,0.00,,,0.00,VWS V14.01,2013-08-16 07:59:00,
2013-08-16 10:00:00,81.2,63.5,30.00,WSW,247,4.0,7.0,55,0.00,,,0.00,VWS V14.01,2013-08-16 08:00:00,
2013-08-16 10:04:00,81.3,63.1,30.00,WSW,252,2.0,7.0,54,0.00,,,0.00,VWS V14.01,2013-08-16 08:04:00,
2013-08-16 10:09:00,80.9,62.7,30.00,WSW,246,4.0,5.0,54,0.00,,,0.00,VWS V14.01,2013-08-16 08:09:00,
2013-08-16 10:10:00,81.1,62.9,30.00,WSW,258,2.0,7.0,54,0.00,,,0.00,VWS V14.01,2013-08-16 08:10:00,
2013-08-16 10:14:00,81.0,62.8,30.00,WSW,242,4.0,7.0,54,0.00,,,0.00,VWS V14.01,2013-08-16 08:14:00,
2013-08-16 10:19:00,81.3,63.1,30.00,WSW,251,5.0,6.0,54,0.00,,,0.00,VWS V14.01,2013-08-16 08:19:00,
2013-08-16 10:20:00,81.4,63.2,30.00,WSW,256,5.0,6.0,54,0.00,,,0.00,VWS V14.01,2013-08-16 08:20:00,
2013-08-16 10:24:00,81.3,63.1,30.00,WSW,255,2.0,6.0,54,0.00,,,0.00,VWS V14.01,2013-08-16 08:24:00,
2013-08-16 10:29:00,81.7,63.5,30.00,West,267,2.0,6.0,54,0.00,,,0.00,VWS V14.01,2013-08-16 08:29:00,
2013-08-16 10:30:00,81.7,62.9,30.00,WSW,243,4.0,7.0,53,0.00,,,0.00,VWS V14.01,2013-08-16 08:30:00,
2013-08-16 10:34:00,81.8,63.0,30.00,WSW,247,5.0,7.0,53,0.00,,,0.00,VWS V14.01,2013-08-16 08:34:00,
2013-08-16 10:39:00,81.3,63.1,30.00,SW,234,5.0,8.0,54,0.00,,,0.00,VWS V14.01,2013-08-16 08:39:00,
2013-08-16 10:40:00,80.9,63.2,30.00,WSW,240,3.0,8.0,55,0.00,,,0.00,VWS V14.01,2013-08-16 08:40:00,
2013-08-16 10:44:00,81.0,63.3,30.00,SW,227,7.0,8.0,55,0.00,,,0.00,VWS V14.01,2013-08-16 08:44:00,
2013-08-16 10:49:00,81.3,65.1,30.00,WSW,252,3.0,7.0,58,0.00,,,0.00,VWS V14.01,2013-08-16 08:49:00,
2013-08-16 10:50:00,81.8,64.1,30.00,SW,232,6.0,7.0,55,0.00,,,0.00,VWS V14.01,2013-08-16 08:50:00,
2013-08-16 10:54:00,81.7,64.0,30.00,WSW,252,5.0,7.0,55,0.00,,,0.00,VWS V14.01,2013-08-16 08:54:00,
2013-08-16 10:59:00,81.9,64.2,30.00,South,181,5.0,7.0,55,0.00,,,0.00,VWS V14.01,2013-08-16 08:59:00,
2013-08-16 11:00:00,82.0,64.3,30.00,SW,225,4.0,7.0,55,0.00,,,0.00,VWS V14.01,2013-08-16 09:00:00,
2013-08-16 11:04:00,82.0,64.3,30.00,SW,229,3.0,7.0,55,0.00,,,0.00,VWS V14.01,2013-08-16 09:04:00,
2013-08-16 11:09:00,81.4,64.2,30.00,SW,232,7.0,8.0,56,0.00,,,0.00,VWS V14.01,2013-08-16 09:09:00,
2013-08-16 11:10:00,81.3,63.6,30.00,SW,223,6.0,8.0,55,0.00,,,0.00,VWS V14.01,2013-08-16 09:10:00,
2013-08-16 11:14:00,81.3,63.6,30.00,SW,219,4.0,8.0,55,0.00,,,0.00,VWS V14.01,2013-08-16 09:14:00,
2013-08-16 11:19:00,81.5,63.3,30.00,SW,215,5.0,7.0,54,0.00,,,0.00,VWS V14.01,2013-08-16 09:19:00,
2013-08-16 11:20:00,81.8,63.5,30.00,SSW,197,5.0,8.0,54,0.00,,,0.00,VWS V14.01,2013-08-16 09:20:00,
2013-08-16 11:24:00,81.7,64.0,30.00,SSW,207,5.0,8.0,55,0.00,,,0.00,VWS V14.01,2013-08-16 09:24:00,
2013-08-16 11:29:00,82.1,63.3,30.00,SSW,209,5.0,7.0,53,0.00,,,0.00,VWS V14.01,2013-08-16 09:29:00,
2013-08-16 11:30:00,81.9,63.1,30.00,SW,227,7.0,8.0,53,0.00,,,0.00,VWS V14.01,2013-08-16 09:30:00,
2013-08-16 11:34:00,81.9,63.1,30.00,SW,232,7.0,8.0,53,0.00,,,0.00,VWS V14.01,2013-08-16 09:34:00,
2013-08-16 11:39:00,82.1,63.3,30.00,SW,231,1.0,7.0,53,0.00,,,0.00,VWS V14.01,2013-08-16 09:39:00,
2013-08-16 11:40:00,82.9,63.5,30.00,South,181,2.0,7.0,52,0.00,,,0.00,VWS V14.01,2013-08-16 09:40:00,
2013-08-16 11:44:00,82.8,63.9,30.00,South,181,3.0,7.0,53,0.00,,,0.00,VWS V14.01,2013-08-16 09:44:00,
2013-08-16 11:49:00,82.8,62.8,30.00,SW,224,7.0,8.0,51,0.00,,,0.00,VWS V14.01,2013-08-16 09:49:00,
2013-08-16 11:50:00,82.0,63.2,30.00,SW,217,4.0,9.0,53,0.00,,,0.00,VWS V14.01,2013-08-16 09:50:00,
2013-08-16 11:54:00,82.0,62.7,30.00,SW,214,6.0,9.0,52,0.00,,,0.00,VWS V14.01,2013-08-16 09:54:00,
2013-08-16 11:59:00,82.6,63.8,30.00,South,182,7.0,7.0,53,0.00,,,0.00,VWS V14.01,2013-08-16 09:59:00,
2013-08-16 12:00:00,82.6,63.2,30.00,SW,229,7.0,9.0,52,0.00,,,0.00,VWS V14.01,2013-08-16 10:00:00,
2013-08-16 12:05:00,82.5,63.1,30.00,SW,231,6.0,9.0,52,0.00,,,0.00,VWS V14.01,2013-08-16 10:05:00,
2013-08-16 12:09:00,82.8,62.8,30.00,WSW,238,4.0,9.0,51,0.00,,,0.00,VWS V14.01,2013-08-16 10:09:00,
2013-08-16 12:10:00,83.1,63.1,30.00,SW,223,7.0,10.0,51,0.00,,,0.00,VWS V14.01,2013-08-16 10:10:00,
2013-08-16 12:14:00,83.1,63.7,30.00,SW,234,8.0,10.0,52,0.00,,,0.00,VWS V14.01,2013-08-16 10:14:00,
2013-08-16 12:20:00,82.7,62.2,30.00,South,175,6.0,9.0,50,0.00,,,0.00,VWS V14.01,2013-08-16 10:20:00,
2013-08-16 12:25:00,83.2,62.7,30.00,South,190,5.0,9.0,50,0.00,,,0.00,VWS V14.01,2013-08-16 10:25:00,
2013-08-16 12:30:00,83.5,63.5,30.00,WSW,244,2.0,7.0,51,0.00,,,0.00,VWS V14.01,2013-08-16 10:30:00,
2013-08-16 12:35:00,83.8,63.2,30.00,WSW,252,2.0,8.0,50,0.00,,,0.00,VWS V14.01,2013-08-16 10:35:00,
2013-08-16 12:40:00,83.6,63.0,30.00,WSW,240,6.0,9.0,50,0.00,,,0.00,VWS V14.01,2013-08-16 10:40:00,
2013-08-16 12:45:00,83.6,63.0,29.99,WSW,252,9.0,9.0,50,0.00,,,0.00,VWS V14.01,2013-08-16 10:45:00,
2013-08-16 12:50:00,83.8,63.2,30.00,SW,235,8.0,8.0,50,0.00,,,0.00,VWS V14.01,2013-08-16 10:50:00,
2013-08-16 12:55:00,83.8,63.2,30.00,WSW,251,6.0,9.0,50,0.00,,,0.00,VWS V14.01,2013-08-16 10:55:00,
2013-08-16 13:00:00,83.6,62.4,30.00,WSW,252,6.0,7.0,49,0.00,,,0.00,VWS V14.01,2013-08-16 11:00:00,
2013-08-16 13:05:00,83.3,62.7,30.00,WSW,242,7.0,10.0,50,0.00,,,0.00,VWS V14.01,2013-08-16 11:05:00,
2013-08-16 13:10:00,83.1,62.5,30.00,WSW,253,6.0,8.0,50,0.00,,,0.00,VWS V14.01,2013-08-16 11:10:00,
2013-08-16 13:15:00,83.3,62.7,30.00,SW,225,8.0,10.0,50,0.00,,,0.00,VWS V14.01,2013-08-16 11:15:00,
2013-08-16 13:20:00,83.0,63.0,30.00,SW,221,7.0,10.0,51,0.00,,,0.00,VWS V14.01,2013-08-16 11:20:00,
2013-08-16 13:25:00,83.8,63.8,29.99,WSW,238,5.0,10.0,51,0.00,,,0.00,VWS V14.01,2013-08-16 11:25:00,
2013-08-16 13:30:00,84.1,64.0,29.99,SW,231,7.0,11.0,51,0.00,,,0.00,VWS V14.01,2013-08-16 11:30:00,
2013-08-16 13:35:00,83.8,65.4,29.99,WSW,253,4.0,11.0,54,0.00,,,0.00,VWS V14.01,2013-08-16 11:35:00,
2013-08-16 13:40:00,84.0,65.1,29.99,WSW,238,4.0,11.0,53,0.00,,,0.00,VWS V14.01,2013-08-16 11:40:00,
2013-08-16 13:45:00,84.0,65.1,29.99,SW,231,7.0,11.0,53,0.00,,,0.00,VWS V14.01,2013-08-16 11:45:00,
2013-08-16 13:50:00,83.8,65.4,29.99,SW,229,8.0,8.0,54,0.00,,,0.00,VWS V14.01,2013-08-16 11:50:00,
2013-08-16 13:55:00,83.9,65.5,29.98,WSW,245,6.0,10.0,54,0.00,,,0.00,VWS V14.01,2013-08-16 11:55:00,
2013-08-16 14:00:00,84.1,65.7,29.99,SW,228,9.0,11.0,54,0.00,,,0.00,VWS V14.01,2013-08-16 12:00:00,
2013-08-16 14:05:00,83.4,65.0,29.98,WSW,242,9.0,11.0,54,0.00,,,0.00,VWS V14.01,2013-08-16 12:05:00,
2013-08-16 14:10:00,83.3,64.4,29.98,WSW,240,9.0,11.0,53,0.00,,,0.00,VWS V14.01,2013-08-16 12:10:00,
2013-08-16 14:15:00,84.0,65.6,29.98,WSW,244,9.0,12.0,54,0.00,,,0.00,VWS V14.01,2013-08-16 12:15:00,
2013-08-16 14:20:00,84.0,65.6,29.98,WSW,244,5.0,9.0,54,0.00,,,0.00,VWS V14.01,2013-08-16 12:20:00,
2013-08-16 14:25:00,83.2,65.9,29.98,SW,229,5.0,13.0,56,0.00,,,0.00,VWS V14.01,2013-08-16 12:25:00,
2013-08-16 14:30:00,84.4,65.9,29.98,WSW,257,6.0,11.0,54,0.00,,,0.00,VWS V14.01,2013-08-16 12:30:00,
2013-08-16 14:35:00,84.4,65.9,29.98,WSW,244,8.0,11.0,54,0.00,,,0.00,VWS V14.01,2013-08-16 12:35:00,
2013-08-16 14:40:00,84.3,65.3,29.98,West,270,10.0,12.0,53,0.00,,,0.00,VWS V14.01,2013-08-16 12:40:00,
2013-08-16 14:45:00,84.1,65.1,29.98,WSW,246,8.0,12.0,53,0.00,,,0.00,VWS V14.01,2013-08-16 12:45:00,
2013-08-16 14:50:00,84.6,65.1,29.98,West,266,10.0,11.0,52,0.00,,,0.00,VWS V14.01,2013-08-16 12:50:00,
2013-08-16 14:55:00,84.6,65.6,29.98,West,261,10.0,13.0,53,0.00,,,0.00,VWS V14.01,2013-08-16 12:55:00,
2013-08-16 15:00:00,84.6,65.6,29.98,WSW,254,8.0,12.0,53,0.00,,,0.00,VWS V14.01,2013-08-16 13:00:00,
2013-08-16 15:05:00,84.5,66.1,29.98,WSW,241,9.0,15.0,54,0.00,,,0.00,VWS V14.01,2013-08-16 13:05:00,
2013-08-16 15:10:00,84.4,64.9,29.98,WSW,255,7.0,17.0,52,0.00,,,0.00,VWS V14.01,2013-08-16 13:10:00,
2013-08-16 15:15:00,84.5,66.1,29.98,WSW,244,7.0,17.0,54,0.00,,,0.00,VWS V14.01,2013-08-16 13:15:00,
2013-08-16 15:20:00,84.4,64.9,29.97,West,279,14.0,14.0,52,0.00,,,0.00,VWS V14.01,2013-08-16 13:20:00,
2013-08-16 15:25:00,84.5,65.0,29.97,WSW,250,11.0,15.0,52,0.00,,,0.00,VWS V14.01,2013-08-16 13:25:00,
2013-08-16 15:30:00,84.3,65.9,29.97,WSW,257,8.0,12.0,54,0.00,,,0.00,VWS V14.01,2013-08-16 13:30:00,
2013-08-16 15:35:00,84.3,65.9,29.97,SW,231,6.0,12.0,54,0.00,,,0.00,VWS V14.01,2013-08-16 13:35:00,
2013-08-16 15:40:00,84.1,65.7,29.97,WSW,244,6.0,12.0,54,0.00,,,0.00,VWS V14.01,2013-08-16 13:40:00,
2013-08-16 15:45:00,83.8,67.0,29.97,WSW,252,9.0,14.0,57,0.00,,,0.00,VWS V14.01,2013-08-16 13:45:00,
2013-08-16 15:50:00,84.0,66.6,29.97,WSW,239,10.0,14.0,56,0.00,,,0.00,VWS V14.01,2013-08-16 13:50:00,
2013-08-16 15:55:00,84.1,66.7,29.96,WSW,250,3.0,14.0,56,0.00,,,0.00,VWS V14.01,2013-08-16 13:55:00,
2013-08-16 16:00:00,84.0,65.1,29.97,WSW,255,11.0,13.0,53,0.00,,,0.00,VWS V14.01,2013-08-16 14:00:00,
2013-08-16 16:05:00,84.1,66.2,29.97,WSW,250,5.0,13.0,55,0.00,,,0.00,VWS V14.01,2013-08-16 14:05:00,
2013-08-16 16:10:00,83.6,66.8,29.97,West,259,5.0,15.0,57,0.00,,,0.00,VWS V14.01,2013-08-16 14:10:00,
2013-08-16 16:15:00,83.5,67.2,29.97,SW,225,12.0,12.0,58,0.00,,,0.00,VWS V14.01,2013-08-16 14:15:00,
2013-08-16 16:20:00,83.7,67.4,29.97,WSW,256,10.0,13.0,58,0.00,,,0.00,VWS V14.01,2013-08-16 14:20:00,
2013-08-16 16:25:00,83.9,68.1,29.97,WSW,254,1.0,13.0,59,0.00,,,0.00,VWS V14.01,2013-08-16 14:25:00,
2013-08-16 16:30:00,83.8,67.0,29.97,WNW,286,9.0,10.0,57,0.00,,,0.00,VWS V14.01,2013-08-16 14:30:00,
2013-08-16 16:35:00,83.8,65.4,29.97,WNW,287,9.0,12.0,54,0.00,,,0.00,VWS V14.01,2013-08-16 14:35:00,
2013-08-16 16:40:00,84.1,67.7,29.97,West,259,3.0,12.0,58,0.00,,,0.00,VWS V14.01,2013-08-16 14:40:00,
2013-08-16 16:45:00,84.6,67.7,29.97,SW,234,8.0,8.0,57,0.00,,,0.00,VWS V14.01,2013-08-16 14:45:00,
2013-08-16 16:50:00,84.5,66.6,29.97,WNW,298,1.0,10.0,55,0.00,,,0.00,VWS V14.01,2013-08-16 14:50:00,
2013-08-16 16:55:00,84.9,66.4,29.97,WSW,240,1.0,10.0,54,0.00,,,0.00,VWS V14.01,2013-08-16 14:55:00,
2013-08-16 17:00:00,84.2,67.8,29.97,West,277,4.0,12.0,58,0.00,,,0.00,VWS V14.01,2013-08-16 15:00:00,
2013-08-16 17:05:00,83.8,68.4,29.97,WSW,249,5.0,12.0,60,0.00,,,0.00,VWS V14.01,2013-08-16 15:05:00,
2013-08-16 17:10:00,83.7,68.8,29.96,NW,308,6.0,11.0,61,0.00,,,0.00,VWS V14.01,2013-08-16 15:10:00,
2013-08-16 17:15:00,84.1,67.2,29.96,WNW,297,9.0,11.0,57,0.00,,,0.00,VWS V14.01,2013-08-16 15:15:00,
2013-08-16 17:20:00,84.1,67.7,29.96,West,273,8.0,9.0,58,0.00,,,0.00,VWS V14.01,2013-08-16 15:20:00,
2013-08-16 17:25:00,83.1,66.8,29.96,West,272,4.0,13.0,58,0.00,,,0.00,VWS V14.01,2013-08-16 15:25:00,
2013-08-16 17:30:00,83.5,67.7,29.96,West,276,8.0,11.0,59,0.00,,,0.00,VWS V14.01,2013-08-16 15:30:00,
2013-08-16 17:35:00,83.3,67.5,29.96,West,271,8.0,12.0,59,0.00,,,0.00,VWS V14.01,2013-08-16 15:35:00,
2013-08-16 17:40:00,83.5,67.2,29.96,West,276,3.0,13.0,58,0.00,,,0.00,VWS V14.01,2013-08-16 15:40:00,
2013-08-16 17:45:00,83.6,67.3,29.96,West,279,8.0,9.0,58,0.00,,,0.00,VWS V14.01,2013-08-16 15:45:00,
2013-08-16 17:50:00,83.2,66.9,29.96,NW,325,5.0,13.0,58,0.00,,,0.00,VWS V14.01,2013-08-16 15:50:00,
2013-08-16 17:55:00,83.7,65.8,29.96,West,277,3.0,13.0,55,0.00,,,0.00,VWS V14.01,2013-08-16 15:55:00,
2013-08-16 18:00:00,83.5,65.1,29.96,West,268,7.0,13.0,54,0.00,,,0.00,VWS V14.01,2013-08-16 16:00:00,
2013-08-16 18:05:00,83.7,65.3,29.96,NNW,330,6.0,13.0,54,0.00,,,0.00,VWS V14.01,2013-08-16 16:05:00,
2013-08-16 18:10:00,83.4,64.5,29.96,WNW,296,10.0,14.0,53,0.00,,,0.00,VWS V14.01,2013-08-16 16:10:00,
2013-08-16 18:15:00,83.3,64.9,29.96,WNW,288,4.0,14.0,54,0.00,,,0.00,VWS V14.01,2013-08-16 16:15:00,
2013-08-16 18:20:00,83.3,65.5,29.96,NNW,330,8.0,12.0,55,0.00,,,0.00,VWS V14.01,2013-08-16 16:20:00,
2013-08-16 18:25:00,83.0,65.7,29.96,NNW,332,7.0,12.0,56,0.00,,,0.00,VWS V14.01,2013-08-16 16:25:00,
2013-08-16 18:30:00,82.6,65.3,29.96,North,355,9.0,12.0,56,0.00,,,0.00,VWS V14.01,2013-08-16 16:30:00,
2013-08-16 18:35:00,82.6,66.3,29.96,NNW,344,7.0,12.0,58,0.00,,,0.00,VWS V14.01,2013-08-16 16:35:00,
2013-08-16 18:40:00,82.4,67.1,29.96,NW,312,5.0,10.0,60,0.00,,,0.00,VWS V14.01,2013-08-16 16:40:00,
2013-08-16 18:45:00,82.0,66.8,29.96,NNW,345,6.0,11.0,60,0.00,,,0.00,VWS V14.01,2013-08-16 16:45:00,
2013-08-16 18:50:00,82.0,67.7,29.96,NW,315,2.0,12.0,62,0.00,,,0.00,VWS V14.01,2013-08-16 16:50:00,
2013-08-16 18:55:00,82.0,67.7,29.96,NNW,340,4.0,12.0,62,0.00,,,0.00,VWS V14.01,2013-08-16 16:55:00,
2013-08-16 19:00:00,81.7,66.5,29.96,NNW,327,6.0,10.0,60,0.00,,,0.00,VWS V14.01,2013-08-16 17:00:00,
2013-08-16 19:05:00,81.5,65.8,29.96,NNW,329,3.0,10.0,59,0.00,,,0.00,VWS V14.01,2013-08-16 17:05:00,
2013-08-16 19:10:00,81.5,66.3,29.96,NW,306,7.0,9.0,60,0.00,,,0.00,VWS V14.01,2013-08-16 17:10:00,
2013-08-16 19:15:00,81.4,67.1,29.96,WNW,302,9.0,11.0,62,0.00,,,0.00,VWS V14.01,2013-08-16 17:15:00,
2013-08-16 19:20:00,81.2,67.4,29.96,NW,304,6.0,9.0,63,0.00,,,0.00,VWS V14.01,2013-08-16 17:20:00,
2013-08-16 19:25:00,80.9,68.0,29.96,WNW,296,4.0,6.0,65,0.00,,,0.00,VWS V14.01,2013-08-16 17:25:00,
2013-08-16 19:30:00,80.6,67.8,29.96,NW,317,5.0,9.0,65,0.00,,,0.00,VWS V14.01,2013-08-16 17:30:00,
2013-08-16 19:35:00,80.5,67.2,29.96,NW,323,4.0,9.0,64,0.00,,,0.00,VWS V14.01,2013-08-16 17:35:00,
2013-08-16 19:40:00,80.5,66.8,29.96,NW,317,5.0,6.0,63,0.00,,,0.00,VWS V14.01,2013-08-16 17:40:00,
2013-08-16 19:45:00,80.4,66.2,29.97,WNW,302,1.0,7.0,62,0.00,,,0.00,VWS V14.01,2013-08-16 17:45:00,
2013-08-16 19:50:00,80.4,66.2,29.97,WNW,302,0.0,3.0,62,0.00,,,0.00,VWS V14.01,2013-08-16 17:50:00,
2013-08-16 19:55:00,80.4,66.2,29.97,WNW,302,0.0,3.0,62,0.00,,,0.00,VWS V14.01,2013-08-16 17:55:00,
2013-08-16 20:00:00,80.2,66.0,29.97,WNW,302,0.0,0.0,62,0.00,,,0.00,VWS V14.01,2013-08-16 18:00:00,
2013-08-16 20:05:00,80.0,65.8,29.97,WNW,302,3.0,3.0,62,0.00,,,0.00,VWS V14.01,2013-08-16 18:05:00,
2013-08-16 20:10:00,79.8,66.1,29.97,WNW,302,3.0,3.0,63,0.00,,,0.00,VWS V14.01,2013-08-16 18:10:00,
2013-08-16 20:15:00,79.5,65.8,29.98,NW,310,3.0,3.0,63,0.00,,,0.00,VWS V14.01,2013-08-16 18:15:00,
2013-08-16 20:20:00,79.0,65.8,29.98,NW,323,3.0,4.0,64,0.00,,,0.00,VWS V14.01,2013-08-16 18:20:00,
2013-08-16 20:25:00,78.9,66.2,29.98,NW,323,1.0,4.0,65,0.00,,,0.00,VWS V14.01,2013-08-16 18:25:00,
2013-08-16 20:30:00,78.9,66.2,29.98,NNW,327,3.0,4.0,65,0.00,,,0.00,VWS V14.01,2013-08-16 18:30:00,
2013-08-16 20:35:00,78.9,66.2,29.98,NNW,342,5.0,6.0,65,0.00,,,0.00,VWS V14.01,2013-08-16 18:35:00,
2013-08-16 20:40:00,78.9,66.6,29.98,NNW,343,5.0,5.0,66,0.00,,,0.00,VWS V14.01,2013-08-16 18:40:00,
2013-08-16 20:45:00,78.8,66.5,29.98,NNW,344,3.0,5.0,66,0.00,,,0.00,VWS V14.01,2013-08-16 18:45:00,
2013-08-16 20:50:00,78.7,66.4,29.98,NNW,344,0.0,3.0,66,0.00,,,0.00,VWS V14.01,2013-08-16 18:50:00,
2013-08-16 20:55:00,78.5,66.6,29.99,NNW,344,1.0,3.0,67,0.00,,,0.00,VWS V14.01,2013-08-16 18:55:00,
2013-08-16 21:00:00,78.2,66.4,29.98,NNW,344,0.0,2.0,67,0.00,,,0.00,VWS V14.01,2013-08-16 19:00:00,
2013-08-16 21:05:00,78.2,66.8,29.99,NNW,344,0.0,2.0,68,0.00,,,0.00,VWS V14.01,2013-08-16 19:05:00,
2013-08-16 21:10:00,78.4,67.0,29.99,NNW,344,1.0,2.0,68,0.00,,,0.00,VWS V14.01,2013-08-16 19:10:00,
2013-08-16 21:15:00,78.4,67.0,29.99,NNW,344,1.0,2.0,68,0.00,,,0.00,VWS V14.01,2013-08-16 19:15:00,
2013-08-16 21:20:00,78.5,67.1,29.99,NNW,344,1.0,2.0,68,0.00,,,0.00,VWS V14.01,2013-08-16 19:20:00,
2013-08-16 21:25:00,78.7,67.7,29.99,NNW,344,3.0,4.0,69,0.00,,,0.00,VWS V14.01,2013-08-16 19:25:00,
2013-08-16 21:30:00,78.7,67.7,29.99,NNW,344,0.0,4.0,69,0.00,,,0.00,VWS V14.01,2013-08-16 19:30:00,
2013-08-16 21:35:00,78.7,67.7,29.99,NNW,344,2.0,4.0,69,0.00,,,0.00,VWS V14.01,2013-08-16 19:35:00,
2013-08-16 21:40:00,78.7,67.7,29.99,North,355,3.0,5.0,69,0.00,,,0.00,VWS V14.01,2013-08-16 19:40:00,
2013-08-16 21:45:00,78.6,68.0,29.99,North,9,4.0,5.0,70,0.00,,,0.00,VWS V14.01,2013-08-16 19:45:00,
2013-08-16 21:50:00,78.4,67.8,29.99,North,9,3.0,4.0,70,0.00,,,0.00,VWS V14.01,2013-08-16 19:50:00,
2013-08-16 21:55:00,78.2,68.0,29.99,North,9,3.0,3.0,71,0.00,,,0.00,VWS V14.01,2013-08-16 19:55:00,
2013-08-16 22:00:00,77.7,68.0,29.99,North,9,3.0,4.0,72,0.00,,,0.00,VWS V14.01,2013-08-16 20:00:00,
2013-08-16 22:05:00,77.5,67.8,29.99,North,9,2.0,4.0,72,0.00,,,0.00,VWS V14.01,2013-08-16 20:05:00,
2013-08-16 22:10:00,77.3,68.0,29.99,North,9,1.0,4.0,73,0.00,,,0.00,VWS V14.01,2013-08-16 20:10:00,
2013-08-16 22:15:00,77.2,67.9,30.00,North,9,1.0,4.0,73,0.00,,,0.00,VWS V14.01,2013-08-16 20:15:00,
2013-08-16 22:20:00,77.1,68.2,30.00,North,10,3.0,4.0,74,0.00,,,0.00,VWS V14.01,2013-08-16 20:20:00,
2013-08-16 22:26:00,77.1,68.2,29.99,North,10,1.0,4.0,74,0.00,,,0.00,VWS V14.01,2013-08-16 20:26:00,
2013-08-16 22:30:00,77.0,68.5,29.99,North,11,5.0,5.0,75,0.00,,,0.00,VWS V14.01,2013-08-16 20:30:00,
2013-08-16 22:31:00,77.0,68.5,29.99,North,10,3.0,4.0,75,0.00,,,0.00,VWS V14.01,2013-08-16 20:31:00,
2013-08-16 22:35:00,77.0,68.5,29.99,North,11,5.0,5.0,75,0.00,,,0.00,VWS V14.01,2013-08-16 20:35:00,
2013-08-16 22:40:00,76.8,68.3,30.00,North,11,2.0,5.0,75,0.00,,,0.00,VWS V14.01,2013-08-16 20:40:00,
2013-08-16 22:45:00,76.6,68.5,30.00,North,11,2.0,5.0,76,0.00,,,0.00,VWS V14.01,2013-08-16 20:45:00,
2013-08-16 22:50:00,76.6,68.5,30.00,North,11,1.0,3.0,76,0.00,,,0.00,VWS V14.01,2013-08-16 20:50:00,
2013-08-16 22:55:00,76.6,68.9,30.00,North,11,0.0,3.0,77,0.00,,,0.00,VWS V14.01,2013-08-16 20:55:00,
2013-08-16 23:00:00,76.9,69.2,30.00,North,11,0.0,1.0,77,0.00,,,0.00,VWS V14.01,2013-08-16 21:00:00,
2013-08-16 23:05:00,76.9,68.8,30.00,North,11,1.0,2.0,76,0.00,,,0.00,VWS V14.01,2013-08-16 21:05:00,
2013-08-16 23:10:00,76.7,68.6,30.00,North,11,0.0,1.0,76,0.00,,,0.00,VWS V14.01,2013-08-16 21:10:00,
2013-08-16 23:15:00,76.6,68.5,30.00,North,11,0.0,1.0,76,0.00,,,0.00,VWS V14.01,2013-08-16 21:15:00,
2013-08-16 23:20:00,76.7,68.6,30.00,North,11,0.0,2.0,76,0.00,,,0.00,VWS V14.01,2013-08-16 21:20:00,
2013-08-16 23:25:00,76.5,68.4,30.00,North,11,0.0,2.0,76,0.00,,,0.00,VWS V14.01,2013-08-16 21:25:00,
2013-08-16 23:30:00,76.1,68.4,30.00,North,11,1.0,3.0,77,0.00,,,0.00,VWS V14.01,2013-08-16 21:30:00,
2013-08-16 23:31:00,76.4,68.3,30.00,North,11,1.0,2.0,76,0.00,,,0.00,VWS V14.01,2013-08-16 21:31:00,
2013-08-16 23:36:00,76.1,68.4,30.00,North,11,1.0,1.0,77,0.00,,,0.00,VWS V14.01,2013-08-16 21:36:00,
2013-08-16 23:40:00,76.6,68.9,30.00,North,11,1.0,3.0,77,0.00,,,0.00,VWS V14.01,2013-08-16 21:40:00,
2013-08-16 23:41:00,76.2,68.8,30.00,North,11,2.0,3.0,78,0.00,,,0.00,VWS V14.01,2013-08-16 21:41:00,
2013-08-16 23:46:00,76.6,68.9,30.00,North,11,1.0,1.0,77,0.00,,,0.00,VWS V14.01,2013-08-16 21:46:00,
2013-08-16 23:50:00,76.5,68.4,30.00,North,11,0.0,2.0,76,0.00,,,0.00,VWS V14.01,2013-08-16 21:50:00,
2013-08-16 23:51:00,76.8,68.7,30.00,North,11,0.0,2.0,76,0.00,,,0.00,VWS V14.01,2013-08-16 21:51:00,
2013-08-16 23:56:00,76.5,68.4,30.00,North,11,0.0,0.0,76,0.00,,,0.00,VWS V14.01,2013-08-16 21:56:00,